createdAt,value
2022-11-21T00:02:22.544Z,94183.16
2022-11-21T00:05:26.816Z,94176.75
2022-11-21T00:08:31.356Z,94184.66
2022-11-21T00:11:34.324Z,94184.44
2022-11-21T00:14:37.946Z,94178.56
2022-11-21T00:17:40.860Z,94185.66
2022-11-21T00:20:45.195Z,94179.06
2022-11-21T00:23:49.663Z,94192.56
2022-11-21T00:26:52.595Z,94187.31
2022-11-21T00:29:55.870Z,94193.53
2022-11-21T00:33:00.221Z,94199.63
2022-11-21T00:36:10.536Z,94203.16
2022-11-21T00:39:14.231Z,94203.44
2022-11-21T00:42:17.860Z,94212.97
2022-11-21T00:45:24.314Z,94202.81
2022-11-21T00:48:27.656Z,94205.91
2022-11-21T00:51:30.566Z,94219.28
2022-11-21T00:54:34.182Z,94221.78
2022-11-21T00:57:37.923Z,94205.94
2022-11-21T01:00:41.630Z,94205.69
2022-11-21T01:03:46.667Z,94204.63
2022-11-21T01:06:50.690Z,94202.94
2022-11-21T01:09:53.740Z,94199.50
2022-11-21T01:12:57.898Z,94205.56
2022-11-21T01:16:08.635Z,94207.22
2022-11-21T01:19:11.547Z,94197.78
2022-11-21T01:22:15.229Z,94198.56
2022-11-21T01:25:18.228Z,94198.34
2022-11-21T01:28:21.117Z,94197.41
2022-11-21T01:31:29.530Z,94189.19
2022-11-21T01:34:33.825Z,94192.00
2022-11-21T01:37:37.664Z,94184.75
2022-11-21T01:40:41.490Z,94178.72
2022-11-21T01:43:45.083Z,94186.75
2022-11-21T01:46:49.276Z,94190.31
2022-11-21T01:49:53.098Z,94192.50
2022-11-21T01:52:56.465Z,94190.47
2022-11-21T01:56:00.167Z,94189.84
2022-11-21T01:59:06.759Z,94203.94
2022-11-21T02:02:14.034Z,94197.72
2022-11-21T02:05:27.070Z,94197.44
2022-11-21T02:08:31.279Z,94193.41
2022-11-21T02:11:42.991Z,94198.81
2022-11-21T02:14:47.758Z,94204.16
2022-11-21T02:17:51.020Z,94199.53
2022-11-21T02:21:21.423Z,94193.47
2022-11-21T02:24:39.085Z,94195.22
2022-11-21T02:27:43.042Z,94187.91
2022-11-21T02:30:47.055Z,94188.94
2022-11-21T02:33:50.736Z,94192.25
2022-11-21T02:36:54.279Z,94190.47
2022-11-21T02:40:01.193Z,94196.59
2022-11-21T02:43:22.917Z,94194.00
2022-11-21T02:46:28.609Z,94187.81
2022-11-21T02:49:42.818Z,94181.25
2022-11-21T02:52:46.420Z,94183.59
2022-11-21T02:55:49.656Z,94173.63
2022-11-21T02:58:53.379Z,94180.38
2022-11-21T03:02:00.235Z,94178.22
2022-11-21T03:05:04.369Z,94178.88
2022-11-21T03:08:09.212Z,94183.19
2022-11-21T03:11:12.188Z,94176.03
2022-11-21T03:14:16.021Z,94192.88
2022-11-21T03:17:20.519Z,94185.69
2022-11-21T03:20:23.704Z,94180.03
2022-11-21T03:23:27.232Z,94188.19
2022-11-21T03:26:30.933Z,94185.47
2022-11-21T03:29:34.578Z,94182.22
2022-11-21T03:32:38.260Z,94184.94
2022-11-21T03:35:41.125Z,94185.88
2022-11-21T03:38:44.840Z,94185.50
2022-11-21T03:41:48.485Z,94184.06
2022-11-21T03:44:52.114Z,94173.44
2022-11-21T03:47:55.133Z,94170.28
2022-11-21T03:50:59.086Z,94167.53
2022-11-21T03:54:02.219Z,94180.59
2022-11-21T03:57:05.851Z,94174.09
2022-11-21T04:00:11.418Z,94165.97
2022-11-21T04:03:15.063Z,94171.50
2022-11-21T04:06:20.775Z,94180.69
2022-11-21T04:09:24.056Z,94170.25
2022-11-21T04:12:26.837Z,94165.47
2022-11-21T04:15:30.841Z,94163.88
2022-11-21T04:18:37.436Z,94162.97
2022-11-21T04:21:41.399Z,94164.31
2022-11-21T04:24:44.922Z,94165.88
2022-11-21T04:27:48.792Z,94164.94
2022-11-21T04:30:55.027Z,94170.53
2022-11-21T04:34:00.105Z,94157.84
2022-11-21T04:37:06.362Z,94156.19
2022-11-21T04:40:15.461Z,94156.31
2022-11-21T04:43:19.122Z,94153.56
2022-11-21T04:46:23.264Z,94148.44
2022-11-21T04:49:27.104Z,94144.38
2022-11-21T04:52:31.232Z,94139.94
2022-11-21T04:55:34.490Z,94135.44
2022-11-21T04:58:38.580Z,94129.63
2022-11-21T05:01:42.271Z,94130.63
2022-11-21T05:04:46.599Z,94130.38
2022-11-21T05:07:50.157Z,94127.69
2022-11-21T05:11:12.263Z,94131.38
2022-11-21T05:14:16.456Z,94123.28
2022-11-21T05:17:20.313Z,94124.06
2022-11-21T05:20:24.471Z,94121.38
2022-11-21T05:23:28.931Z,94117.78
2022-11-21T05:26:32.417Z,94114.97
2022-11-21T05:29:36.822Z,94105.00
2022-11-21T05:32:40.647Z,94105.38
2022-11-21T05:35:44.617Z,94115.38
2022-11-21T05:38:48.184Z,94102.13
2022-11-21T05:41:52.845Z,94096.47
2022-11-21T05:44:56.347Z,94108.41
2022-11-21T05:48:00.252Z,94104.66
2022-11-21T05:51:05.325Z,94096.84
2022-11-21T05:54:09.261Z,94095.66
2022-11-21T05:57:12.873Z,94091.69
2022-11-21T06:00:17.160Z,94087.88
2022-11-21T06:03:31.296Z,94084.00
2022-11-21T06:06:35.782Z,94076.16
2022-11-21T06:09:38.941Z,94075.53
2022-11-21T06:12:42.992Z,94068.59
2022-11-21T06:15:46.576Z,94067.69
2022-11-21T06:18:58.056Z,94063.06
2022-11-21T06:22:01.868Z,94056.63
2022-11-21T06:25:05.709Z,94054.88
2022-11-21T06:28:09.442Z,94062.88
2022-11-21T06:31:19.353Z,94053.88
2022-11-21T06:34:22.698Z,94051.09
2022-11-21T06:37:26.694Z,94052.06
2022-11-21T06:40:30.241Z,94041.22
2022-11-21T06:43:34.680Z,94035.28
2022-11-21T06:46:38.319Z,94038.44
2022-11-21T06:49:42.214Z,94040.78
2022-11-21T06:52:45.981Z,94030.63
2022-11-21T06:55:49.801Z,94033.31
2022-11-21T06:58:53.935Z,94025.06
2022-11-21T07:01:57.900Z,94023.44
2022-11-21T07:05:01.439Z,94025.84
2022-11-21T07:08:10.461Z,94017.53
2022-11-21T07:11:25.192Z,94018.00
2022-11-21T07:14:29.761Z,94022.03
2022-11-21T07:17:33.390Z,94018.25
2022-11-21T07:20:36.621Z,94019.13
2022-11-21T07:23:40.769Z,94011.19
2022-11-21T07:26:44.670Z,94016.34
2022-11-21T07:29:47.923Z,94011.34
2022-11-21T07:32:59.095Z,94009.56
2022-11-21T07:36:02.626Z,94009.22
2022-11-21T07:39:07.375Z,94005.19
2022-11-21T07:42:10.925Z,94005.00
2022-11-21T07:45:16.072Z,94000.00
2022-11-21T07:48:19.685Z,93996.47
2022-11-21T07:51:23.576Z,93993.81
2022-11-21T07:54:27.201Z,93995.38
2022-11-21T07:57:31.241Z,93997.38
2022-11-21T08:00:36.781Z,93993.53
2022-11-21T08:03:40.657Z,94000.44
2022-11-21T08:06:44.295Z,94000.09
2022-11-21T08:09:48.300Z,93998.16
2022-11-21T08:12:52.224Z,93995.31
2022-11-21T08:15:55.774Z,93985.69
2022-11-21T08:19:00.549Z,93995.19
2022-11-21T08:22:04.944Z,93985.88
2022-11-21T08:25:09.578Z,93991.34
2022-11-21T08:28:14.035Z,93989.13
2022-11-21T08:31:17.748Z,94000.88
2022-11-21T08:34:21.865Z,93990.25
2022-11-21T08:37:25.495Z,93997.84
2022-11-21T08:40:31.172Z,93989.91
2022-11-21T08:43:34.408Z,93997.38
2022-11-21T08:46:39.166Z,93994.63
2022-11-21T08:49:42.696Z,93996.53
2022-11-21T08:52:46.993Z,94005.13
2022-11-21T08:55:50.696Z,94000.69
2022-11-21T08:58:54.713Z,94002.31
2022-11-21T09:01:58.422Z,94003.19
2022-11-21T09:05:02.419Z,93997.22
2022-11-21T09:08:06.131Z,93994.03
2022-11-21T09:11:11.107Z,94005.28
2022-11-21T09:14:33.097Z,94011.19
2022-11-21T09:17:56.113Z,94021.00
2022-11-21T09:20:59.654Z,94013.28
2022-11-21T09:24:03.525Z,94020.03
2022-11-21T09:27:07.262Z,94013.91
2022-11-21T09:30:11.210Z,94023.13
2022-11-21T09:33:17.364Z,94022.84
2022-11-21T09:36:21.280Z,94019.47
2022-11-21T09:39:24.669Z,94023.06
2022-11-21T09:43:17.133Z,94020.59
2022-11-21T09:46:25.978Z,94019.97
2022-11-21T09:49:30.797Z,94032.31
2022-11-21T09:52:50.503Z,94027.00
2022-11-21T09:56:01.043Z,94022.69
2022-11-21T09:59:24.480Z,94026.56
2022-11-21T10:02:28.417Z,94031.44
2022-11-21T10:05:40.318Z,94031.09
2022-11-21T10:09:02.681Z,94031.47
2022-11-21T10:12:38.736Z,94030.22
2022-11-21T10:16:01.714Z,94037.47
2022-11-21T10:19:14.566Z,94041.84
2022-11-21T10:22:51.890Z,94042.47
2022-11-21T10:26:16.047Z,94060.69
2022-11-21T10:29:39.517Z,94063.66
2022-11-21T10:32:47.277Z,94061.41
2022-11-21T10:35:54.231Z,94053.31
2022-11-21T10:39:04.020Z,94047.22
2022-11-21T10:42:24.229Z,94049.19
2022-11-21T10:45:28.650Z,94039.56
2022-11-21T10:48:32.247Z,94043.16
2022-11-21T10:51:59.916Z,94040.91
2022-11-21T10:55:11.413Z,94039.44
2022-11-21T10:58:20.806Z,94036.69
2022-11-21T11:01:34.255Z,94042.69
2022-11-21T11:04:45.760Z,94044.00
2022-11-21T11:08:02.038Z,94040.47
2022-11-21T11:11:14.500Z,94040.97
2022-11-21T11:14:30.867Z,94035.78
2022-11-21T11:17:35.512Z,94033.03
2022-11-21T11:20:44.351Z,94035.78
2022-11-21T11:23:49.274Z,94028.84
2022-11-21T11:27:03.672Z,94037.63
2022-11-21T11:30:08.901Z,94029.59
2022-11-21T11:33:34.931Z,94024.66
2022-11-21T11:36:45.239Z,94036.91
2022-11-21T11:40:25.664Z,94036.22
2022-11-21T11:44:20.709Z,94034.06
2022-11-21T11:47:31.544Z,94034.06
2022-11-21T11:50:57.970Z,94031.81
2022-11-21T11:54:13.195Z,94025.31
2022-11-21T11:57:18.397Z,94020.78
2022-11-21T12:00:31.450Z,94035.72
2022-11-21T12:03:37.146Z,94039.75
2022-11-21T12:11:30.306Z,94038.00
2022-11-21T12:15:38.257Z,94039.56
2022-11-21T12:19:08.678Z,94025.97
2022-11-21T12:22:12.860Z,94023.16
2022-11-21T12:25:17.064Z,94028.75
2022-11-21T12:28:34.448Z,94027.78
2022-11-21T12:31:41.203Z,94017.94
2022-11-21T12:35:15.923Z,94025.59
2022-11-21T12:38:47.478Z,94032.59
2022-11-21T12:42:36.520Z,94037.34
2022-11-21T12:45:49.189Z,94046.78
2022-11-21T12:49:28.748Z,94033.66
2022-11-21T12:53:05.024Z,94028.44
2022-11-21T12:56:22.835Z,94028.25
2022-11-21T12:59:27.073Z,94010.84
2022-11-21T13:02:50.893Z,94020.78
2022-11-21T13:05:58.041Z,94010.59
2022-11-21T13:09:04.019Z,94014.06
2022-11-21T13:12:32.823Z,94012.06
2022-11-21T13:15:40.265Z,94024.22
2022-11-21T13:18:48.273Z,94016.72
2022-11-21T13:21:57.280Z,94027.41
2022-11-21T13:25:02.869Z,94028.97
2022-11-21T13:28:15.497Z,94028.72
2022-11-21T13:31:29.065Z,94028.25
2022-11-21T13:34:39.459Z,94030.25
2022-11-21T13:38:08.748Z,94028.25
2022-11-21T13:41:51.126Z,94032.94
2022-11-21T13:44:55.145Z,94024.03
2022-11-21T13:48:10.926Z,94030.00
2022-11-21T13:51:56.100Z,94021.56
2022-11-21T13:55:16.544Z,94025.78
2022-11-21T13:58:45.302Z,94013.88
2022-11-21T14:02:15.804Z,94023.00
2022-11-21T14:05:49.760Z,94027.94
2022-11-21T14:09:38.047Z,94014.56
2022-11-21T14:12:44.851Z,94013.06
2022-11-21T14:16:16.567Z,94008.53
2022-11-21T14:19:21.309Z,93999.56
2022-11-21T14:22:35.131Z,93988.81
2022-11-21T14:25:40.510Z,93991.50
2022-11-21T14:28:47.657Z,93990.69
2022-11-21T14:31:51.658Z,94001.50
2022-11-21T14:35:12.394Z,93992.31
2022-11-21T14:38:16.487Z,93993.53
2022-11-21T14:41:26.040Z,93985.72
2022-11-21T14:44:30.102Z,93976.75
2022-11-21T14:47:34.155Z,93971.91
2022-11-21T14:50:38.071Z,93973.59
2022-11-21T14:53:43.443Z,93976.66
2022-11-21T14:57:00.909Z,93975.31
2022-11-21T15:00:07.490Z,93987.38
2022-11-21T15:03:22.899Z,93983.47
2022-11-21T15:06:30.538Z,93970.38
2022-11-21T15:13:07.615Z,93973.38
2022-11-21T15:16:11.492Z,93959.47
2022-11-21T15:19:22.354Z,93956.66
2022-11-21T15:22:34.852Z,93960.44
2022-11-21T15:25:48.110Z,93951.75
2022-11-21T15:28:58.120Z,93955.91
2022-11-21T15:32:16.616Z,93961.19
2022-11-21T15:35:35.877Z,93943.34
2022-11-21T15:38:50.533Z,93943.50
2022-11-21T15:41:53.723Z,93937.63
2022-11-21T15:45:00.368Z,93942.56
2022-11-21T15:48:07.991Z,93935.53
2022-11-21T15:51:11.902Z,93923.06
2022-11-21T15:54:24.209Z,93931.84
2022-11-21T15:57:27.604Z,93929.22
2022-11-21T16:00:30.806Z,93920.28
2022-11-21T16:03:34.430Z,93919.72
2022-11-21T16:06:38.106Z,93909.16
2022-11-21T16:09:42.586Z,93912.47
2022-11-21T16:12:47.127Z,93916.16
2022-11-21T16:15:50.087Z,93917.75
2022-11-21T16:18:54.417Z,93908.84
2022-11-21T16:21:57.256Z,93902.72
2022-11-21T16:25:00.160Z,93905.47
2022-11-21T16:28:07.109Z,93908.34
2022-11-21T16:31:22.968Z,93911.75
2022-11-21T16:34:28.163Z,93914.72
2022-11-21T16:37:34.388Z,93916.72
2022-11-21T16:40:37.515Z,93920.25
2022-11-21T16:43:49.612Z,93902.69
2022-11-21T16:46:55.390Z,93911.47
2022-11-21T16:49:58.653Z,93913.91
2022-11-21T16:53:02.247Z,93913.75
2022-11-21T16:56:05.471Z,93910.94
2022-11-21T16:59:08.328Z,93903.97
2022-11-21T17:02:13.472Z,93907.34
2022-11-21T17:05:18.088Z,93906.38
2022-11-21T17:08:21.702Z,93906.69
2022-11-21T17:11:28.728Z,93899.38
2022-11-21T17:14:32.111Z,93884.22
2022-11-21T17:17:35.121Z,93894.38
2022-11-21T17:20:39.412Z,93896.66
2022-11-21T17:23:45.720Z,93903.25
2022-11-21T17:26:49.661Z,93891.66
2022-11-21T17:29:53.457Z,93893.00
2022-11-21T17:32:56.814Z,93888.91
2022-11-21T17:36:06.640Z,93900.47
2022-11-21T17:39:10.560Z,93884.22
2022-11-21T17:42:14.081Z,93896.66
2022-11-21T17:45:17.813Z,93901.00
2022-11-21T17:48:21.282Z,93888.09
2022-11-21T17:51:29.595Z,93878.13
2022-11-21T17:54:32.813Z,93899.47
2022-11-21T17:57:36.330Z,93886.75
2022-11-21T18:00:39.951Z,93888.38
2022-11-21T18:03:43.892Z,93891.25
2022-11-21T18:06:47.120Z,93887.94
2022-11-21T18:09:50.422Z,93871.91
2022-11-21T18:12:53.268Z,93864.84
2022-11-21T18:15:56.497Z,93856.56
2022-11-21T18:19:00.078Z,93864.00
2022-11-21T18:22:04.116Z,93858.19
2022-11-21T18:25:07.285Z,93857.91
2022-11-21T18:28:10.488Z,93875.22
2022-11-21T18:31:17.660Z,93877.88
2022-11-21T18:34:21.879Z,93880.19
2022-11-21T18:37:25.466Z,93881.81
2022-11-21T18:40:29.036Z,93869.53
2022-11-21T18:43:33.209Z,93856.56
2022-11-21T18:46:38.223Z,93858.38
2022-11-21T18:49:41.544Z,93856.25
2022-11-21T18:52:46.941Z,93865.44
2022-11-21T18:55:50.841Z,93866.25
2022-11-21T18:58:58.623Z,93874.34
2022-11-21T19:02:03.348Z,93861.97
2022-11-21T19:05:07.203Z,93864.75
2022-11-21T19:08:10.697Z,93873.72
2022-11-21T19:11:16.384Z,93864.88
2022-11-21T19:14:20.453Z,93870.81
2022-11-21T19:17:24.018Z,93868.53
2022-11-21T19:20:27.560Z,93864.88
2022-11-21T19:23:31.897Z,93861.44
2022-11-21T19:26:36.168Z,93863.50
2022-11-21T19:29:39.374Z,93861.31
2022-11-21T19:32:43.380Z,93861.69
2022-11-21T19:35:47.125Z,93859.03
2022-11-21T19:38:51.875Z,93856.53
2022-11-21T19:41:55.676Z,93858.72
2022-11-21T19:44:59.258Z,93863.28
2022-11-21T19:48:03.439Z,93855.03
2022-11-21T19:51:07.269Z,93855.38
2022-11-21T19:54:13.196Z,93854.06
2022-11-21T19:57:16.726Z,93854.28
2022-11-21T20:00:22.798Z,93848.81
2022-11-21T20:03:26.403Z,93853.31
2022-11-21T20:06:33.085Z,93859.44
2022-11-21T20:09:37.006Z,93855.19
2022-11-21T20:12:41.052Z,93862.94
2022-11-21T20:15:44.567Z,93870.41
2022-11-21T20:18:48.833Z,93868.81
2022-11-21T20:21:52.572Z,93875.34
2022-11-21T20:24:56.151Z,93877.88
2022-11-21T20:27:59.385Z,93866.59
2022-11-21T20:31:11.702Z,93860.84
2022-11-21T20:34:15.458Z,93870.94
2022-11-21T20:37:18.649Z,93862.13
2022-11-21T20:40:22.245Z,93860.38
2022-11-21T20:43:44.199Z,93859.09
2022-11-21T20:46:49.290Z,93847.84
2022-11-21T20:49:53.784Z,93860.28
2022-11-21T20:53:50.341Z,93873.88
2022-11-21T20:56:20.835Z,93870.19
2022-11-21T20:59:24.369Z,93873.09
2022-11-21T21:02:27.236Z,93865.94
2022-11-21T21:05:31.140Z,93869.78
2022-11-21T21:08:35.257Z,93870.50
2022-11-21T21:11:54.640Z,93869.00
2022-11-21T21:14:58.288Z,93875.56
2022-11-21T21:18:02.262Z,93872.34
2022-11-21T21:21:17.492Z,93882.47
2022-11-21T21:24:21.211Z,93876.41
2022-11-21T21:27:24.057Z,93874.50
2022-11-21T21:30:28.067Z,93868.28
2022-11-21T21:33:31.419Z,93870.88
2022-11-21T21:36:34.693Z,93867.78
2022-11-21T21:39:38.692Z,93875.44
2022-11-21T21:42:42.723Z,93866.06
2022-11-21T21:45:45.581Z,93873.56
2022-11-21T21:48:49.222Z,93871.53
2022-11-21T21:51:53.056Z,93875.78
2022-11-21T21:54:57.013Z,93879.28
2022-11-21T21:58:00.583Z,93877.06
2022-11-21T22:01:13.186Z,93877.59
2022-11-21T22:04:16.801Z,93881.59
2022-11-21T22:07:20.364Z,93873.44
2022-11-21T22:10:24.024Z,93881.16
2022-11-21T22:13:27.016Z,93885.66
2022-11-21T22:16:31.452Z,93883.66
2022-11-21T22:19:35.385Z,93887.88
2022-11-21T22:22:38.971Z,93895.31
2022-11-21T22:25:42.846Z,93891.09
2022-11-21T22:28:46.743Z,93898.00
2022-11-21T22:31:51.362Z,93898.50
2022-11-21T22:34:54.536Z,93894.78
2022-11-21T22:37:57.465Z,93901.50
2022-11-21T22:41:04.149Z,93894.56
2022-11-21T22:44:07.736Z,93900.00
2022-11-21T22:47:11.321Z,93896.78
2022-11-21T22:50:16.001Z,93909.69
2022-11-21T22:53:19.056Z,93909.72
2022-11-21T22:56:23.846Z,93924.81
2022-11-21T22:59:27.423Z,93920.53
2022-11-21T23:02:33.107Z,93923.94
2022-11-21T23:05:36.839Z,93930.91
2022-11-21T23:08:41.514Z,93934.88
2022-11-21T23:11:45.483Z,93937.56
2022-11-21T23:14:48.455Z,93939.97
2022-11-21T23:17:53.216Z,93954.63
2022-11-21T23:20:56.249Z,93953.94
2022-11-21T23:24:00.237Z,93952.94
2022-11-21T23:27:03.932Z,93959.91
2022-11-21T23:30:08.264Z,93958.38
2022-11-21T23:33:11.931Z,93965.09
2022-11-21T23:36:16.036Z,93979.06
2022-11-21T23:39:19.305Z,93966.41
2022-11-21T23:42:23.210Z,93969.13
2022-11-21T23:45:26.825Z,93957.81
2022-11-21T23:48:30.880Z,93950.94
2022-11-21T23:51:34.242Z,93964.03
2022-11-21T23:54:38.347Z,93973.22
2022-11-21T23:57:42.041Z,93988.94
